x

South Bermuda - 300 Nm Sse Of Bermuda (41049) Wave Buoy

1:50pm - Sat 28th Feb 2015 All times are UTC.

  • Sig Wave height 4.9ft
  • Swell Direction
  • Peak Period 10s
  • Average Period 7s
  • Wind
    9mph, 11mph gusts
  • Sea Temp 74°f
  • Air Temp 74°f
  • Sea Pressure 1027.6mb

More Historic Weather Station data

Upgrade to MSW Pro to gain access to the past 30 days of data for over 8000 Wavebouys and Weather Stations around the globe.

Join Pro

Comparision Forecast

View Surf forecast
   
Sat 02/28 1:50pm 5ft 10s 7s 9 11 mph 1027.6mb 74f 74f
12:50pm 4.5ft 11s 7s 9 13 mph 1027.2mb 73f 74f
11:50am 5ft 8s 7s 9 11 mph 1026.6mb 73f 73f
10:50am 5ft 11s 7s 7 9 mph 1026mb 73f 73f
9:50am 4.5ft 8s 7s 9
mph
1025.5mb 74f 73f
8:50am 4.5ft 9s 6s 7
mph
1025.1mb 74f 73f
7:50am 4.5ft 9s 6s 7 9 mph 1024.8mb 74f 73f
6:50am 4ft 7s 6s 7 9 mph 1025.1mb 74f 73f
5:50am 4.5ft 8s 6s 7 11 mph 1025.4mb 74f 73f
4:50am 4.5ft 9s 6s 9 11 mph 1025.6mb 74f 74f
3:50am 4.5ft 9s 7s 9 11 mph 1025.7mb 74f 74f
2:50am 4ft 8s 6s 7 9 mph 1025.9mb 74f 74f
1:50am 4.5ft 8s 6s 7
mph
1025.9mb 74f 74f
12:50am 4.5ft 8s 6s 4 7 mph 1025.9mb 74f 74f
Fri 02/27 11:50pm 4.5ft 9s 6s 4 7 mph 1025.5mb 74f 74f
10:50pm 4.5ft 8s 6s 7 9 mph 1024.9mb 74f 74f
9:50pm 4.5ft 8s 6s 9 11 mph 1024.3mb 74f 74f
8:50pm 4.5ft 9s 6s 11
mph
1023.7mb 74f 75f
7:50pm 4.5ft 8s 6s 11
mph
1023.4mb 74f 75f
6:50pm 4.5ft 8s 6s 11 13 mph 1023.3mb 74f 75f
5:50pm 4.5ft 8s 6s 9 11 mph 1023.7mb 74f 74f
4:50pm 4.5ft 9s 6s 11 13 mph 1024.2mb 74f 74f
3:50pm 4.5ft 9s 6s 13 16 mph 1024.6mb 74f 74f
2:50pm 4.5ft 9s 6s 13
mph
1025mb 74f 74f
1:50pm 4.5ft 8s 6s 11 13 mph 1024.9mb 74f 74f
12:50pm 4.5ft 9s 6s 11 13 mph 1024.6mb 73f 74f
11:50am 4.5ft 8s 6s 11 13 mph 1024.1mb 73f 74f
10:50am 4.5ft 8s 6s 11 13 mph 1023.2mb 73f 73f
9:50am 5ft 9s 7s 11 13 mph 1022.8mb 73f 73f
8:50am 5ft 9s 6s 11 13 mph 1022.3mb 73f 73f
7:50am 5ft 9s 7s 11 13 mph 1022.2mb 74f 73f
6:50am 5ft 9s 7s 11
mph
1022.7mb 74f 73f
5:50am 5.5ft 9s 7s 9 11 mph 1023.1mb 74f 74f
4:50am 5ft 9s 7s 11 13 mph 1023.4mb 74f 74f
3:50am 5ft 10s 7s 11 13 mph 1023.6mb 74f 74f
2:50am 5.5ft 9s 7s 11 13 mph 1023.7mb 74f 74f
1:50am 6ft 9s 7s 11 13 mph 1023.6mb 74f 74f
12:50am 6ft 9s 7s 9 11 mph 1023.8mb 74f 74f
Thu 02/26 11:50pm 5ft 9s 7s 7 9 mph 1023.4mb 74f 74f
10:50pm 6ft 10s 7s 9 11 mph 1022.6mb 74f 74f
9:50pm 6.5ft 10s 7s 9 11 mph 1021.9mb 74f 74f
8:50pm 5.5ft 9s 7s 11 13 mph 1021.4mb 74f 75f
7:50pm 5.5ft 9s 7s 11 13 mph 1020.8mb 74f 75f
6:50pm 6ft 9s 7s 13 16 mph 1020.6mb 74f 75f
5:50pm 6ft 10s 7s 13 16 mph 1020.6mb 74f 74f
4:50pm 5.5ft 10s 7s 13 16 mph 1021.2mb 74f 74f
3:50pm 6ft 10s 7s 11 13 mph 1021.7mb 74f 74f
2:50pm 5.5ft 10s 7s 11 13 mph 1022.3mb 74f 74f
1:50pm 6ft 10s 7s 9 11 mph 1022.1mb 73f 74f
12:50pm 6ft 9s 7s 11 13 mph 1021.6mb 73f 74f
11:50am 5.5ft 10s 7s 11 13 mph 1020.7mb 73f 74f
10:50am 6ft 9s 7s 11 13 mph 1020.1mb 73f 73f
9:50am 6.5ft 10s 8s 9 11 mph 1019.6mb 73f 73f
8:50am 6ft 10s 7s 9 11 mph 1019.4mb 73f 73f
7:50am 6ft 9s 7s 9 11 mph 1019.6mb 73f 73f
6:50am 6ft 9s 7s 7 9 mph 1019.8mb 73f 73f
5:50am 6.5ft 10s 7s 7
mph
1020.4mb 73f 73f
4:50am 6ft 10s 7s 7
mph
1020.5mb 73f 73f
3:50am 6ft 10s 7s 9 11 mph 1020.8mb 73f 74f
2:50am 7ft 9s 7s 7 9 mph 1021.1mb 73f 73f
1:50am 7ft 10s 8s 7 9 mph 1021.4mb 73f 73f
12:50am 6.5ft 10s 7s 2 4 mph 1021.1mb 73f 74f
Wed 02/25 11:50pm 6ft 10s 7s 7 9 mph 1020.6mb 73f 74f
10:50pm 7.5ft 10s 8s 9 11 mph 1019.7mb 74f 74f
9:50pm 6ft 11s 7s 7 9 mph 1019.1mb 74f 74f
8:50pm 7ft 11s 7s 9 11 mph 1018.6mb 74f 75f
7:50pm 6.5ft 10s 7s 11 13 mph 1017.9mb 73f 74f
6:50pm 8ft 11s 7s 11 13 mph 1017.6mb 73f 74f
5:50pm 8ft 11s 7s 11 13 mph 1018.1mb 73f 74f
4:50pm 8.5ft 11s 7s 13 16 mph 1018.5mb 73f 75f
3:50pm 8.5ft 11s 8s 13 16 mph 1018.6mb 73f 74f
2:50pm 8ft 11s 7s 16 18 mph 1018.4mb 73f 74f
1:50pm 8ft 11s 7s 16 20 mph 1018mb 73f 74f
12:50pm 6.5ft 11s 7s 18 22 mph 1017mb 73f 74f
11:50am 5.5ft 11s 7s 18 20 mph 1016.9mb 73f 74f
10:50am 5.5ft 9s 7s 16 20 mph 1016.5mb 73f 74f
9:50am 5ft 10s 7s 13 16 mph 1015.9mb 73f 74f
8:50am 5ft 9s 7s 11 13 mph 1015.6mb 73f 73f
7:50am 5ft 11s 7s 11 13 mph 1015.5mb 73f 73f
6:50am 4.5ft 10s 7s 9 11 mph 1015.9mb 73f 73f
5:50am 5ft 9s 7s 9 11 mph 1016.3mb 73f 73f
4:50am 5ft 11s 7s 9
mph
1017mb 73f 73f
3:50am 5ft 11s 7s 9
mph
1017.8mb 73f 73f
2:50am 5ft 10s 7s 7 9 mph 1018.1mb 73f 73f
1:50am 5ft 11s 7s 7
mph
1018.1mb 73f 73f
12:50am 5ft 10s 7s 4 7 mph 1018.2mb 73f 73f
Tue 02/24 11:50pm 5ft 11s 7s 4 7 mph 1017.6mb 73f 73f
10:50pm 5ft 10s 7s 7 9 mph 1017.1mb 73f 73f
9:50pm 5ft 11s 7s 9 11 mph 1017mb 73f 74f
8:50pm 5ft 11s 7s 7 9 mph 1016.4mb 74f 74f
7:50pm 5.5ft 11s 7s 11 13 mph 1016.1mb 74f 74f
6:50pm 5.5ft 11s 7s 11 13 mph 1016.4mb 74f 74f
5:50pm 6ft 11s 7s 11 13 mph 1016.7mb 74f 74f
4:50pm 6ft 11s 7s 11 13 mph 1017.4mb 74f 74f
3:50pm 6ft 10s 7s 9 11 mph 1018.1mb 74f 74f